Godfrey, IL (62035)

2:21 AM CDT on April 27, 2017 (GMT -0500)
Godfrey River Aire Subdivision | | Change Station

Elev 600 ft 38.94 °N, 90.23 °W | Updated 8 seconds ago

Rain
Rain
46.9 °F
Feels Like 47 °F
N
0.0
Wind Variable Wind from WNW
Gusts 8.0 mph

Today
High -- | Low -- °F
--% Chance of Precip.
Yesterday
High -- | Low -- °F
Precip. -- in
Pressure 29.51 in
Visibility 7.0 miles
Clouds Overcast 1100 ft
Windchill 47 °F
Dew Point 46 °F
Humidity 96%
Rainfall 0.25 in
Snow Depth Not available.
6:07 AM 7:49 PM
New Moon, 1% visible
METAR KALN 270655Z AUTO 28015KT 7SM -RA OVC011 09/08 A2951 RMK AO2 P0006 T00910084
Pressure 29.51 in
Visibility 7.0 miles
Clouds Overcast 1100 ft
Windchill 47 °F
Dew Point 46 °F
Humidity 96%
Rainfall 0.25 in
Snow Depth Not available.
6:07 AM 7:49 PM
New Moon, 1% visible
METAR KALN 270655Z AUTO 28015KT 7SM -RA OVC011 09/08 A2951 RMK AO2 P0006 T00910084

Get Severe Weather Alerts

Thanks for signing up!

Be on the lookout for a verification email in your inbox.

You'll start receiving the daily forecast at 8 AM.

×

10-Day Weather Forecast

Almanac

Astronomy

Apr. 27, 2017 Rise Set
Actual Time
Civil Twilight
Nautical Twilight
Astronomical Twilight
Moon
Length of Visible Light
Length of Day
Tomorrow will be .
, % of the Moon is Illuminated

Today's Extremes

State Highs State Lows

Community

WunderPhotos

WunderBlog® & News

Nearby

Air Quality

  Air Quality AQ Index Pollutant
Not available.

Snow Depth

Station Depth Elevation

Earthquake Activity

City Distance Mag. Time & Date
Minimum magnitude displayed is 2.5.

Coastal Water Temperatures

Place Temperature

Stations

Nearby Weather Stations

Station Location Temp. Windchill Dew Point Humidity Wind Precip. Elev Updated Type
                   

Watches & Warnings

There are currently no watches in effect.